Evanston Uinta County Burns Field
KEVW : now visible

Airfield :











YOU CAN JOIN US ON...

 
LOGIN :

Register | Disclaimer

   EN    FR    IT 

 









Legend :    VFR   Marginal VFR   IFR   Intensive IFR   Very Intensive IFR
Visi :
Ceiling :
>= 8 km
>= 3000ft
5 to 8 km
1000 to 3000 ft
1500m to 5 km
500 to 1000 ft
800 to 1500m
200 to 500 ft
< 800m
< 200 ft
Symbols :   Thunderstorms  Fog  Heavy snow  Heavy precipitations  Wind > 20 kt







- Airport Elevation : 7143 ft


KEVW - Evanston Uinta County Burns Field

CURRENT METAR :
  • 210353Z AUTO 23011KT 10SM FEW045 02/01 A3014 RMK AO2 SLP191 T00220006

EXPIRED METARs :
  • 210253Z AUTO 24009KT 10SM CLR 03/01 A3013 RMK AO2 SLP174 T00280006 51007
  • 210153Z AUTO 25013KT 10SM FEW036 SCT055 03/01 A3012 RMK AO2 SLP175 T00330006

TAF KEVW
Valid from the 21 at 00:00 until the 22 at 00:00 UTC


202325Z 2100/2124 24016KT P6SM VCSH SCT020 BKN080
FM210400 25010KT P6SM BKN060
FM210600 22006KT P6SM BCFG SCT020
FM211600 26011KT P6SM SCT045 SCT080
No reported NOTAMs for that airfield.



MET'MAP, your aeronautical weather chart ! - Copyright ORBIFLY December 2007 - Disclaimer

ORBIFLY MET'MAP TEAM :

Programming & Development : Alexandra Zaïnal
Concept & Development : Baudouin d'Aumeries
Co-Development & Prog : Marc-Olivier Méhu
Technical & hardware support : Manuel Goepfert

Contact : metmap@orbifly.com




SOURCES & CREDITS :

   NOAA       Earth
Advisory